sensor_id;sensor_type;location;lat;lon;timestamp;P1;durP1;ratioP1;P2;durP2;ratioP2
10677;SDS011;5387;48.722;9.110;2023-12-20T00:00:37;1.30;;;1.30;;
10677;SDS011;5387;48.722;9.110;2023-12-20T00:03:04;1.43;;;1.33;;
10677;SDS011;5387;48.722;9.110;2023-12-20T00:05:31;1.80;;;1.37;;
10677;SDS011;5387;48.722;9.110;2023-12-20T00:07:58;1.50;;;1.40;;
10677;SDS011;5387;48.722;9.110;2023-12-20T00:10:25;2.10;;;1.20;;
10677;SDS011;5387;48.722;9.110;2023-12-20T00:12:52;1.40;;;1.30;;
10677;SDS011;5387;48.722;9.110;2023-12-20T00:15:20;1.73;;;1.40;;
10677;SDS011;5387;48.722;9.110;2023-12-20T00:17:46;2.93;;;1.30;;
10677;SDS011;5387;48.722;9.110;2023-12-20T00:20:13;1.10;;;1.10;;
10677;SDS011;5387;48.722;9.110;2023-12-20T00:22:40;0.93;;;0.93;;
10677;SDS011;5387;48.722;9.110;2023-12-20T00:25:07;1.30;;;1.20;;
10677;SDS011;5387;48.722;9.110;2023-12-20T00:27:34;1.10;;;1.10;;
10677;SDS011;5387;48.722;9.110;2023-12-20T00:30:01;1.77;;;1.50;;
10677;SDS011;5387;48.722;9.110;2023-12-20T00:32:29;1.20;;;1.10;;
10677;SDS011;5387;48.722;9.110;2023-12-20T00:34:56;1.23;;;1.20;;
10677;SDS011;5387;48.722;9.110;2023-12-20T00:37:22;1.00;;;1.00;;
10677;SDS011;5387;48.722;9.110;2023-12-20T00:39:50;1.33;;;1.03;;
10677;SDS011;5387;48.722;9.110;2023-12-20T00:42:16;1.23;;;1.23;;
10677;SDS011;5387;48.722;9.110;2023-12-20T00:44:43;2.07;;;1.20;;
10677;SDS011;5387;48.722;9.110;2023-12-20T00:47:10;1.07;;;1.07;;
10677;SDS011;5387;48.722;9.110;2023-12-20T00:49:39;1.20;;;1.10;;
10677;SDS011;5387;48.722;9.110;2023-12-20T00:52:06;1.10;;;1.10;;
10677;SDS011;5387;48.722;9.110;2023-12-20T00:54:33;1.13;;;1.03;;
10677;SDS011;5387;48.722;9.110;2023-12-20T00:56:59;1.23;;;1.20;;
10677;SDS011;5387;48.722;9.110;2023-12-20T00:59:26;4.70;;;1.77;;
10677;SDS011;5387;48.722;9.110;2023-12-20T01:01:53;1.03;;;1.03;;
10677;SDS011;5387;48.722;9.110;2023-12-20T01:04:20;1.30;;;1.20;;
10677;SDS011;5387;48.722;9.110;2023-12-20T01:06:48;1.97;;;1.20;;
10677;SDS011;5387;48.722;9.110;2023-12-20T01:09:14;1.30;;;1.20;;
10677;SDS011;5387;48.722;9.110;2023-12-20T01:11:41;1.50;;;1.40;;
10677;SDS011;5387;48.722;9.110;2023-12-20T01:14:08;1.87;;;1.30;;
10677;SDS011;5387;48.722;9.110;2023-12-20T01:16:35;4.00;;;1.13;;
10677;SDS011;5387;48.722;9.110;2023-12-20T01:19:02;5.40;;;1.40;;
10677;SDS011;5387;48.722;9.110;2023-12-20T01:21:29;1.10;;;1.10;;
10677;SDS011;5387;48.722;9.110;2023-12-20T01:23:57;1.30;;;1.20;;
10677;SDS011;5387;48.722;9.110;2023-12-20T01:26:24;5.10;;;1.60;;
10677;SDS011;5387;48.722;9.110;2023-12-20T01:28:50;1.10;;;1.10;;
10677;SDS011;5387;48.722;9.110;2023-12-20T01:31:17;1.97;;;1.33;;
10677;SDS011;5387;48.722;9.110;2023-12-20T01:33:44;1.77;;;1.40;;
10677;SDS011;5387;48.722;9.110;2023-12-20T01:36:11;1.00;;;1.00;;
10677;SDS011;5387;48.722;9.110;2023-12-20T01:38:37;1.50;;;1.40;;
10677;SDS011;5387;48.722;9.110;2023-12-20T01:41:05;2.33;;;1.60;;
10677;SDS011;5387;48.722;9.110;2023-12-20T01:43:32;4.27;;;1.50;;
10677;SDS011;5387;48.722;9.110;2023-12-20T01:45:59;1.80;;;1.30;;
10677;SDS011;5387;48.722;9.110;2023-12-20T01:48:26;2.83;;;1.50;;
10677;SDS011;5387;48.722;9.110;2023-12-20T01:50:54;2.77;;;1.60;;
10677;SDS011;5387;48.722;9.110;2023-12-20T01:53:21;1.47;;;1.37;;
10677;SDS011;5387;48.722;9.110;2023-12-20T01:55:52;1.83;;;1.10;;
10677;SDS011;5387;48.722;9.110;2023-12-20T01:58:22;3.50;;;1.17;;
10677;SDS011;5387;48.722;9.110;2023-12-20T02:00:50;2.30;;;1.70;;
10677;SDS011;5387;48.722;9.110;2023-12-20T02:03:17;1.70;;;1.17;;
10677;SDS011;5387;48.722;9.110;2023-12-20T02:05:44;1.83;;;1.17;;
10677;SDS011;5387;48.722;9.110;2023-12-20T02:08:13;1.17;;;1.10;;
10677;SDS011;5387;48.722;9.110;2023-12-20T02:10:40;2.37;;;0.90;;
10677;SDS011;5387;48.722;9.110;2023-12-20T02:13:08;1.27;;;1.27;;
10677;SDS011;5387;48.722;9.110;2023-12-20T02:15:36;1.10;;;1.10;;
10677;SDS011;5387;48.722;9.110;2023-12-20T02:18:02;0.90;;;0.90;;
10677;SDS011;5387;48.722;9.110;2023-12-20T02:20:30;1.00;;;1.00;;
10677;SDS011;5387;48.722;9.110;2023-12-20T02:22:57;1.57;;;1.27;;
10677;SDS011;5387;48.722;9.110;2023-12-20T02:25:24;0.90;;;0.90;;
10677;SDS011;5387;48.722;9.110;2023-12-20T02:27:51;1.13;;;1.00;;
10677;SDS011;5387;48.722;9.110;2023-12-20T02:30:18;1.23;;;1.00;;
10677;SDS011;5387;48.722;9.110;2023-12-20T02:32:45;0.90;;;0.90;;
10677;SDS011;5387;48.722;9.110;2023-12-20T02:35:11;0.70;;;0.70;;
10677;SDS011;5387;48.722;9.110;2023-12-20T02:37:38;3.93;;;0.83;;
10677;SDS011;5387;48.722;9.110;2023-12-20T02:40:07;1.00;;;1.00;;
10677;SDS011;5387;48.722;9.110;2023-12-20T02:42:34;0.80;;;0.80;;
10677;SDS011;5387;48.722;9.110;2023-12-20T02:45:01;0.73;;;0.73;;
10677;SDS011;5387;48.722;9.110;2023-12-20T02:47:27;0.90;;;0.90;;
10677;SDS011;5387;48.722;9.110;2023-12-20T02:49:54;1.17;;;0.93;;
10677;SDS011;5387;48.722;9.110;2023-12-20T02:52:21;0.80;;;0.80;;
10677;SDS011;5387;48.722;9.110;2023-12-20T02:54:49;0.83;;;0.83;;
10677;SDS011;5387;48.722;9.110;2023-12-20T02:57:17;0.90;;;0.90;;
10677;SDS011;5387;48.722;9.110;2023-12-20T02:59:44;1.37;;;0.70;;
10677;SDS011;5387;48.722;9.110;2023-12-20T03:02:10;0.83;;;0.83;;
10677;SDS011;5387;48.722;9.110;2023-12-20T03:04:37;0.90;;;0.90;;
10677;SDS011;5387;48.722;9.110;2023-12-20T03:07:04;0.90;;;0.90;;
10677;SDS011;5387;48.722;9.110;2023-12-20T03:09:31;0.73;;;0.73;;
10677;SDS011;5387;48.722;9.110;2023-12-20T03:11:58;1.67;;;1.00;;
10677;SDS011;5387;48.722;9.110;2023-12-20T03:14:26;1.57;;;1.10;;
10677;SDS011;5387;48.722;9.110;2023-12-20T03:16:52;1.17;;;1.10;;
10677;SDS011;5387;48.722;9.110;2023-12-20T03:19:19;0.90;;;0.90;;
10677;SDS011;5387;48.722;9.110;2023-12-20T03:21:46;1.90;;;0.90;;
10677;SDS011;5387;48.722;9.110;2023-12-20T03:24:13;3.43;;;1.17;;
10677;SDS011;5387;48.722;9.110;2023-12-20T03:26:39;1.30;;;1.20;;
10677;SDS011;5387;48.722;9.110;2023-12-20T03:29:06;6.67;;;1.10;;
10677;SDS011;5387;48.722;9.110;2023-12-20T03:31:34;2.37;;;1.13;;
10677;SDS011;5387;48.722;9.110;2023-12-20T03:34:01;1.77;;;1.00;;
10677;SDS011;5387;48.722;9.110;2023-12-20T03:36:28;0.80;;;0.80;;
10677;SDS011;5387;48.722;9.110;2023-12-20T03:38:54;1.47;;;0.80;;
10677;SDS011;5387;48.722;9.110;2023-12-20T03:41:21;0.70;;;0.70;;
10677;SDS011;5387;48.722;9.110;2023-12-20T03:43:48;2.30;;;0.87;;
10677;SDS011;5387;48.722;9.110;2023-12-20T03:46:15;0.60;;;0.60;;
10677;SDS011;5387;48.722;9.110;2023-12-20T03:48:43;0.80;;;0.80;;
10677;SDS011;5387;48.722;9.110;2023-12-20T03:51:10;0.60;;;0.60;;
10677;SDS011;5387;48.722;9.110;2023-12-20T03:53:37;0.97;;;0.70;;
10677;SDS011;5387;48.722;9.110;2023-12-20T03:56:05;0.60;;;0.60;;
10677;SDS011;5387;48.722;9.110;2023-12-20T03:58:32;2.03;;;0.60;;
10677;SDS011;5387;48.722;9.110;2023-12-20T04:00:59;0.70;;;0.70;;
10677;SDS011;5387;48.722;9.110;2023-12-20T04:03:26;0.70;;;0.70;;
10677;SDS011;5387;48.722;9.110;2023-12-20T04:05:54;0.60;;;0.60;;
10677;SDS011;5387;48.722;9.110;2023-12-20T04:08:21;0.70;;;0.70;;
10677;SDS011;5387;48.722;9.110;2023-12-20T04:10:48;0.60;;;0.60;;
10677;SDS011;5387;48.722;9.110;2023-12-20T04:13:15;0.70;;;0.70;;
10677;SDS011;5387;48.722;9.110;2023-12-20T04:15:42;2.00;;;0.70;;
10677;SDS011;5387;48.722;9.110;2023-12-20T04:18:09;1.80;;;0.80;;
10677;SDS011;5387;48.722;9.110;2023-12-20T04:20:36;0.60;;;0.60;;
10677;SDS011;5387;48.722;9.110;2023-12-20T04:23:04;0.80;;;0.70;;
10677;SDS011;5387;48.722;9.110;2023-12-20T04:25:30;2.40;;;0.77;;
10677;SDS011;5387;48.722;9.110;2023-12-20T04:27:57;0.60;;;0.60;;
10677;SDS011;5387;48.722;9.110;2023-12-20T04:30:24;0.60;;;0.60;;
10677;SDS011;5387;48.722;9.110;2023-12-20T04:32:51;3.70;;;0.70;;
10677;SDS011;5387;48.722;9.110;2023-12-20T04:35:17;0.80;;;0.80;;
10677;SDS011;5387;48.722;9.110;2023-12-20T04:37:44;0.70;;;0.70;;
10677;SDS011;5387;48.722;9.110;2023-12-20T04:40:16;0.80;;;0.80;;
10677;SDS011;5387;48.722;9.110;2023-12-20T04:42:43;0.70;;;0.70;;
10677;SDS011;5387;48.722;9.110;2023-12-20T04:45:10;1.07;;;0.60;;
10677;SDS011;5387;48.722;9.110;2023-12-20T04:47:38;0.70;;;0.70;;
10677;SDS011;5387;48.722;9.110;2023-12-20T04:50:05;0.60;;;0.60;;
10677;SDS011;5387;48.722;9.110;2023-12-20T04:52:33;0.70;;;0.70;;
10677;SDS011;5387;48.722;9.110;2023-12-20T04:54:59;0.60;;;0.60;;
10677;SDS011;5387;48.722;9.110;2023-12-20T04:57:27;3.63;;;0.90;;
10677;SDS011;5387;48.722;9.110;2023-12-20T04:59:54;1.40;;;1.30;;
10677;SDS011;5387;48.722;9.110;2023-12-20T05:02:21;1.13;;;1.03;;
10677;SDS011;5387;48.722;9.110;2023-12-20T05:04:48;1.30;;;1.20;;
10677;SDS011;5387;48.722;9.110;2023-12-20T05:07:15;0.93;;;0.93;;
10677;SDS011;5387;48.722;9.110;2023-12-20T05:09:41;0.90;;;0.90;;
10677;SDS011;5387;48.722;9.110;2023-12-20T05:12:08;0.97;;;0.90;;
10677;SDS011;5387;48.722;9.110;2023-12-20T05:14:36;2.47;;;0.80;;
10677;SDS011;5387;48.722;9.110;2023-12-20T05:17:03;1.33;;;0.80;;
10677;SDS011;5387;48.722;9.110;2023-12-20T05:19:30;0.67;;;0.67;;
10677;SDS011;5387;48.722;9.110;2023-12-20T05:22:00;1.03;;;0.80;;
10677;SDS011;5387;48.722;9.110;2023-12-20T05:24:26;0.67;;;0.67;;
10677;SDS011;5387;48.722;9.110;2023-12-20T05:26:53;1.63;;;0.80;;
10677;SDS011;5387;48.722;9.110;2023-12-20T05:29:20;6.47;;;1.00;;
10677;SDS011;5387;48.722;9.110;2023-12-20T05:31:48;0.80;;;0.80;;
10677;SDS011;5387;48.722;9.110;2023-12-20T05:34:15;3.93;;;0.90;;
10677;SDS011;5387;48.722;9.110;2023-12-20T05:36:41;1.50;;;1.10;;
10677;SDS011;5387;48.722;9.110;2023-12-20T05:39:08;0.80;;;0.77;;
10677;SDS011;5387;48.722;9.110;2023-12-20T05:41:35;1.30;;;1.20;;
10677;SDS011;5387;48.722;9.110;2023-12-20T05:44:02;1.77;;;1.10;;
10677;SDS011;5387;48.722;9.110;2023-12-20T05:46:29;3.53;;;0.90;;
10677;SDS011;5387;48.722;9.110;2023-12-20T05:48:57;2.00;;;1.00;;
10677;SDS011;5387;48.722;9.110;2023-12-20T05:51:23;1.80;;;0.90;;
10677;SDS011;5387;48.722;9.110;2023-12-20T05:53:50;4.50;;;0.70;;
10677;SDS011;5387;48.722;9.110;2023-12-20T05:56:17;2.73;;;0.90;;
10677;SDS011;5387;48.722;9.110;2023-12-20T05:58:44;4.43;;;0.90;;
10677;SDS011;5387;48.722;9.110;2023-12-20T06:01:11;1.10;;;1.00;;
10677;SDS011;5387;48.722;9.110;2023-12-20T06:03:40;1.23;;;0.93;;
10677;SDS011;5387;48.722;9.110;2023-12-20T06:06:09;1.03;;;1.00;;
10677;SDS011;5387;48.722;9.110;2023-12-20T06:08:36;1.17;;;0.90;;
10677;SDS011;5387;48.722;9.110;2023-12-20T06:11:03;1.03;;;1.03;;
10677;SDS011;5387;48.722;9.110;2023-12-20T06:13:30;1.60;;;1.10;;
10677;SDS011;5387;48.722;9.110;2023-12-20T06:15:57;6.57;;;1.20;;
10677;SDS011;5387;48.722;9.110;2023-12-20T06:18:24;1.40;;;1.30;;
10677;SDS011;5387;48.722;9.110;2023-12-20T06:20:50;1.10;;;1.00;;
10677;SDS011;5387;48.722;9.110;2023-12-20T06:23:18;1.17;;;1.07;;
10677;SDS011;5387;48.722;9.110;2023-12-20T06:25:45;2.50;;;1.23;;
10677;SDS011;5387;48.722;9.110;2023-12-20T06:28:12;1.50;;;1.03;;
10677;SDS011;5387;48.722;9.110;2023-12-20T06:30:39;1.17;;;1.07;;
10677;SDS011;5387;48.722;9.110;2023-12-20T06:33:06;3.70;;;1.40;;
10677;SDS011;5387;48.722;9.110;2023-12-20T06:35:35;1.00;;;1.00;;
10677;SDS011;5387;48.722;9.110;2023-12-20T06:38:01;1.80;;;1.20;;
10677;SDS011;5387;48.722;9.110;2023-12-20T06:40:30;1.60;;;1.00;;
10677;SDS011;5387;48.722;9.110;2023-12-20T06:42:56;1.43;;;1.30;;
10677;SDS011;5387;48.722;9.110;2023-12-20T06:45:24;2.27;;;1.33;;
10677;SDS011;5387;48.722;9.110;2023-12-20T06:47:51;1.07;;;1.07;;
10677;SDS011;5387;48.722;9.110;2023-12-20T06:50:19;1.63;;;1.30;;
10677;SDS011;5387;48.722;9.110;2023-12-20T06:52:46;6.90;;;1.30;;
10677;SDS011;5387;48.722;9.110;2023-12-20T06:55:13;5.10;;;1.40;;
10677;SDS011;5387;48.722;9.110;2023-12-20T06:57:41;3.57;;;1.53;;
10677;SDS011;5387;48.722;9.110;2023-12-20T07:00:08;1.70;;;1.47;;
10677;SDS011;5387;48.722;9.110;2023-12-20T07:02:37;1.20;;;1.10;;
10677;SDS011;5387;48.722;9.110;2023-12-20T07:05:04;1.60;;;1.30;;
10677;SDS011;5387;48.722;9.110;2023-12-20T07:07:31;0.90;;;0.90;;
10677;SDS011;5387;48.722;9.110;2023-12-20T07:09:58;0.80;;;0.80;;
10677;SDS011;5387;48.722;9.110;2023-12-20T07:12:24;2.57;;;0.90;;
10677;SDS011;5387;48.722;9.110;2023-12-20T07:14:53;4.43;;;1.10;;
10677;SDS011;5387;48.722;9.110;2023-12-20T07:17:19;0.90;;;0.90;;
10677;SDS011;5387;48.722;9.110;2023-12-20T07:19:47;2.03;;;1.00;;
10677;SDS011;5387;48.722;9.110;2023-12-20T07:22:14;2.40;;;1.10;;
10677;SDS011;5387;48.722;9.110;2023-12-20T07:24:40;1.30;;;1.20;;
10677;SDS011;5387;48.722;9.110;2023-12-20T07:27:07;2.70;;;1.33;;
10677;SDS011;5387;48.722;9.110;2023-12-20T07:29:34;1.30;;;1.20;;
10677;SDS011;5387;48.722;9.110;2023-12-20T07:32:02;1.37;;;1.23;;
10677;SDS011;5387;48.722;9.110;2023-12-20T07:34:29;1.30;;;1.30;;
10677;SDS011;5387;48.722;9.110;2023-12-20T07:36:56;1.60;;;1.40;;
10677;SDS011;5387;48.722;9.110;2023-12-20T07:39:23;1.27;;;1.17;;
10677;SDS011;5387;48.722;9.110;2023-12-20T07:41:49;2.73;;;1.17;;
10677;SDS011;5387;48.722;9.110;2023-12-20T07:44:16;1.60;;;1.50;;
10677;SDS011;5387;48.722;9.110;2023-12-20T07:46:43;2.00;;;1.90;;
10677;SDS011;5387;48.722;9.110;2023-12-20T07:49:11;2.60;;;2.40;;
10677;SDS011;5387;48.722;9.110;2023-12-20T07:51:38;7.07;;;1.97;;
10677;SDS011;5387;48.722;9.110;2023-12-20T07:54:05;6.87;;;2.50;;
10677;SDS011;5387;48.722;9.110;2023-12-20T07:56:33;3.17;;;2.73;;
10677;SDS011;5387;48.722;9.110;2023-12-20T07:58:59;1.90;;;1.80;;
10677;SDS011;5387;48.722;9.110;2023-12-20T08:01:26;4.20;;;3.20;;
10677;SDS011;5387;48.722;9.110;2023-12-20T08:03:53;4.47;;;2.90;;
10677;SDS011;5387;48.722;9.110;2023-12-20T08:06:21;3.43;;;3.07;;
10677;SDS011;5387;48.722;9.110;2023-12-20T08:08:48;3.40;;;2.27;;
10677;SDS011;5387;48.722;9.110;2023-12-20T08:11:15;5.00;;;3.07;;
10677;SDS011;5387;48.722;9.110;2023-12-20T08:13:42;5.10;;;2.60;;
10677;SDS011;5387;48.722;9.110;2023-12-20T08:16:09;1.77;;;1.67;;
10677;SDS011;5387;48.722;9.110;2023-12-20T08:18:38;3.50;;;3.20;;
10677;SDS011;5387;48.722;9.110;2023-12-20T08:21:05;4.53;;;2.33;;
10677;SDS011;5387;48.722;9.110;2023-12-20T08:23:34;3.20;;;2.90;;
10677;SDS011;5387;48.722;9.110;2023-12-20T08:26:03;5.57;;;3.43;;
10677;SDS011;5387;48.722;9.110;2023-12-20T08:28:30;3.90;;;2.70;;
10677;SDS011;5387;48.722;9.110;2023-12-20T08:30:57;2.97;;;2.67;;
10677;SDS011;5387;48.722;9.110;2023-12-20T08:33:24;4.73;;;3.60;;
10677;SDS011;5387;48.722;9.110;2023-12-20T08:35:51;3.60;;;3.30;;
10677;SDS011;5387;48.722;9.110;2023-12-20T08:38:17;4.37;;;3.43;;
10677;SDS011;5387;48.722;9.110;2023-12-20T08:40:45;4.37;;;3.27;;
10677;SDS011;5387;48.722;9.110;2023-12-20T08:43:13;4.43;;;2.67;;
10677;SDS011;5387;48.722;9.110;2023-12-20T08:45:40;3.77;;;3.27;;
10677;SDS011;5387;48.722;9.110;2023-12-20T08:48:07;4.83;;;3.60;;
10677;SDS011;5387;48.722;9.110;2023-12-20T08:50:33;4.60;;;2.10;;
10677;SDS011;5387;48.722;9.110;2023-12-20T08:53:01;1.67;;;1.57;;
10677;SDS011;5387;48.722;9.110;2023-12-20T08:55:28;5.17;;;3.20;;
10677;SDS011;5387;48.722;9.110;2023-12-20T08:57:57;7.33;;;3.07;;
10677;SDS011;5387;48.722;9.110;2023-12-20T09:00:24;10.00;;;2.90;;
10677;SDS011;5387;48.722;9.110;2023-12-20T09:02:52;3.07;;;2.57;;
10677;SDS011;5387;48.722;9.110;2023-12-20T09:05:20;2.93;;;2.73;;
10677;SDS011;5387;48.722;9.110;2023-12-20T09:07:47;3.77;;;2.47;;
10677;SDS011;5387;48.722;9.110;2023-12-20T09:10:14;6.43;;;2.07;;
10677;SDS011;5387;48.722;9.110;2023-12-20T09:12:40;2.93;;;2.30;;
10677;SDS011;5387;48.722;9.110;2023-12-20T09:15:09;6.90;;;2.57;;
10677;SDS011;5387;48.722;9.110;2023-12-20T09:17:35;2.90;;;2.40;;
10677;SDS011;5387;48.722;9.110;2023-12-20T09:20:02;2.63;;;2.43;;
10677;SDS011;5387;48.722;9.110;2023-12-20T09:22:31;5.87;;;2.20;;
10677;SDS011;5387;48.722;9.110;2023-12-20T09:24:58;6.13;;;2.37;;
10677;SDS011;5387;48.722;9.110;2023-12-20T09:27:25;2.20;;;2.00;;
10677;SDS011;5387;48.722;9.110;2023-12-20T09:29:52;2.93;;;1.93;;
10677;SDS011;5387;48.722;9.110;2023-12-20T09:32:20;5.80;;;2.30;;
10677;SDS011;5387;48.722;9.110;2023-12-20T09:34:47;4.23;;;2.20;;
10677;SDS011;5387;48.722;9.110;2023-12-20T09:37:14;3.73;;;1.83;;
10677;SDS011;5387;48.722;9.110;2023-12-20T09:39:40;2.53;;;1.90;;
10677;SDS011;5387;48.722;9.110;2023-12-20T09:42:07;4.63;;;2.13;;
10677;SDS011;5387;48.722;9.110;2023-12-20T09:44:37;3.57;;;2.20;;
10677;SDS011;5387;48.722;9.110;2023-12-20T09:47:07;4.63;;;1.80;;
10677;SDS011;5387;48.722;9.110;2023-12-20T09:49:36;1.20;;;1.10;;
10677;SDS011;5387;48.722;9.110;2023-12-20T09:52:04;4.27;;;1.77;;
10677;SDS011;5387;48.722;9.110;2023-12-20T09:54:33;4.23;;;1.90;;
10677;SDS011;5387;48.722;9.110;2023-12-20T09:57:00;4.30;;;1.60;;
10677;SDS011;5387;48.722;9.110;2023-12-20T09:59:27;2.70;;;1.77;;
10677;SDS011;5387;48.722;9.110;2023-12-20T10:01:54;4.70;;;1.53;;
10677;SDS011;5387;48.722;9.110;2023-12-20T10:04:22;3.53;;;1.70;;
10677;SDS011;5387;48.722;9.110;2023-12-20T10:06:52;5.23;;;1.90;;
10677;SDS011;5387;48.722;9.110;2023-12-20T10:09:18;4.53;;;1.43;;
10677;SDS011;5387;48.722;9.110;2023-12-20T10:11:45;3.53;;;1.53;;
10677;SDS011;5387;48.722;9.110;2023-12-20T10:14:12;6.00;;;1.63;;
10677;SDS011;5387;48.722;9.110;2023-12-20T10:16:39;8.57;;;2.00;;
10677;SDS011;5387;48.722;9.110;2023-12-20T10:19:07;3.07;;;1.30;;
10677;SDS011;5387;48.722;9.110;2023-12-20T10:21:34;7.20;;;1.73;;
10677;SDS011;5387;48.722;9.110;2023-12-20T10:24:02;3.50;;;1.50;;
10677;SDS011;5387;48.722;9.110;2023-12-20T10:26:29;6.80;;;2.43;;
10677;SDS011;5387;48.722;9.110;2023-12-20T10:28:56;4.43;;;2.50;;
10677;SDS011;5387;48.722;9.110;2023-12-20T10:31:27;7.30;;;2.30;;
10677;SDS011;5387;48.722;9.110;2023-12-20T10:33:58;5.37;;;1.73;;
10677;SDS011;5387;48.722;9.110;2023-12-20T10:36:26;2.87;;;2.07;;
10677;SDS011;5387;48.722;9.110;2023-12-20T10:38:54;2.07;;;1.67;;
10677;SDS011;5387;48.722;9.110;2023-12-20T10:41:25;2.80;;;1.83;;
10677;SDS011;5387;48.722;9.110;2023-12-20T10:43:54;4.17;;;1.70;;
10677;SDS011;5387;48.722;9.110;2023-12-20T10:46:24;3.57;;;1.87;;
10677;SDS011;5387;48.722;9.110;2023-12-20T10:48:53;2.03;;;1.27;;
10677;SDS011;5387;48.722;9.110;2023-12-20T10:51:20;2.67;;;1.47;;
10677;SDS011;5387;48.722;9.110;2023-12-20T10:53:48;5.70;;;1.33;;
10677;SDS011;5387;48.722;9.110;2023-12-20T10:56:16;2.23;;;1.30;;
10677;SDS011;5387;48.722;9.110;2023-12-20T10:58:45;2.97;;;1.33;;
10677;SDS011;5387;48.722;9.110;2023-12-20T11:01:13;6.07;;;1.40;;
10677;SDS011;5387;48.722;9.110;2023-12-20T11:03:42;8.57;;;2.03;;
10677;SDS011;5387;48.722;9.110;2023-12-20T11:06:13;6.20;;;2.03;;
10677;SDS011;5387;48.722;9.110;2023-12-20T11:08:50;8.80;;;2.13;;
10677;SDS011;5387;48.722;9.110;2023-12-20T11:11:27;4.60;;;1.40;;
10677;SDS011;5387;48.722;9.110;2023-12-20T11:14:01;2.97;;;1.30;;
10677;SDS011;5387;48.722;9.110;2023-12-20T11:16:33;6.70;;;1.57;;
10677;SDS011;5387;48.722;9.110;2023-12-20T11:19:04;4.00;;;1.40;;
10677;SDS011;5387;48.722;9.110;2023-12-20T11:21:31;3.43;;;1.47;;
10677;SDS011;5387;48.722;9.110;2023-12-20T11:23:58;5.30;;;1.70;;
10677;SDS011;5387;48.722;9.110;2023-12-20T11:26:26;2.40;;;1.40;;
10677;SDS011;5387;48.722;9.110;2023-12-20T11:28:54;1.57;;;1.40;;
10677;SDS011;5387;48.722;9.110;2023-12-20T11:31:42;2.33;;;1.70;;
10677;SDS011;5387;48.722;9.110;2023-12-20T11:34:12;5.67;;;1.73;;
10677;SDS011;5387;48.722;9.110;2023-12-20T11:36:39;5.13;;;1.70;;
10677;SDS011;5387;48.722;9.110;2023-12-20T11:39:06;2.50;;;1.27;;
10677;SDS011;5387;48.722;9.110;2023-12-20T11:41:33;7.90;;;1.67;;
10677;SDS011;5387;48.722;9.110;2023-12-20T11:44:00;2.67;;;1.70;;
10677;SDS011;5387;48.722;9.110;2023-12-20T11:46:28;3.13;;;1.53;;
10677;SDS011;5387;48.722;9.110;2023-12-20T11:48:56;5.87;;;1.60;;
10677;SDS011;5387;48.722;9.110;2023-12-20T11:51:23;2.77;;;1.30;;
10677;SDS011;5387;48.722;9.110;2023-12-20T11:53:51;4.73;;;1.30;;
10677;SDS011;5387;48.722;9.110;2023-12-20T11:56:18;4.20;;;1.87;;
10677;SDS011;5387;48.722;9.110;2023-12-20T11:58:45;5.37;;;1.90;;
10677;SDS011;5387;48.722;9.110;2023-12-20T12:01:13;5.27;;;1.47;;
10677;SDS011;5387;48.722;9.110;2023-12-20T12:03:40;5.67;;;1.63;;
10677;SDS011;5387;48.722;9.110;2023-12-20T12:06:09;3.27;;;2.00;;
10677;SDS011;5387;48.722;9.110;2023-12-20T12:08:35;4.97;;;1.90;;
10677;SDS011;5387;48.722;9.110;2023-12-20T12:11:03;6.47;;;2.43;;
10677;SDS011;5387;48.722;9.110;2023-12-20T12:13:30;7.23;;;3.20;;
10677;SDS011;5387;48.722;9.110;2023-12-20T12:15:56;6.73;;;1.83;;
10677;SDS011;5387;48.722;9.110;2023-12-20T12:18:24;2.17;;;1.50;;
10677;SDS011;5387;48.722;9.110;2023-12-20T12:20:59;5.87;;;2.10;;
10677;SDS011;5387;48.722;9.110;2023-12-20T12:23:27;7.63;;;1.80;;
10677;SDS011;5387;48.722;9.110;2023-12-20T12:25:54;5.50;;;2.03;;
10677;SDS011;5387;48.722;9.110;2023-12-20T12:28:25;2.53;;;1.87;;
10677;SDS011;5387;48.722;9.110;2023-12-20T12:30:56;1.30;;;1.20;;
10677;SDS011;5387;48.722;9.110;2023-12-20T12:33:24;6.47;;;1.47;;
10677;SDS011;5387;48.722;9.110;2023-12-20T12:35:51;2.27;;;2.10;;
10677;SDS011;5387;48.722;9.110;2023-12-20T12:38:19;6.80;;;1.80;;
10677;SDS011;5387;48.722;9.110;2023-12-20T12:40:47;6.37;;;1.70;;
10677;SDS011;5387;48.722;9.110;2023-12-20T12:43:15;3.73;;;1.53;;
10677;SDS011;5387;48.722;9.110;2023-12-20T12:45:42;5.10;;;1.67;;
10677;SDS011;5387;48.722;9.110;2023-12-20T12:48:09;3.47;;;1.23;;
10677;SDS011;5387;48.722;9.110;2023-12-20T12:50:35;8.63;;;1.83;;
10677;SDS011;5387;48.722;9.110;2023-12-20T12:53:02;2.60;;;1.60;;
10677;SDS011;5387;48.722;9.110;2023-12-20T12:55:29;4.57;;;1.30;;
10677;SDS011;5387;48.722;9.110;2023-12-20T12:57:57;8.73;;;2.23;;
10677;SDS011;5387;48.722;9.110;2023-12-20T13:00:24;4.87;;;1.37;;
10677;SDS011;5387;48.722;9.110;2023-12-20T13:02:51;5.50;;;1.73;;
10677;SDS011;5387;48.722;9.110;2023-12-20T13:05:18;3.00;;;1.50;;
10677;SDS011;5387;48.722;9.110;2023-12-20T13:07:45;3.87;;;1.77;;
10677;SDS011;5387;48.722;9.110;2023-12-20T13:10:12;2.83;;;1.57;;
10677;SDS011;5387;48.722;9.110;2023-12-20T13:12:41;3.73;;;1.73;;
10677;SDS011;5387;48.722;9.110;2023-12-20T13:15:09;2.20;;;1.90;;
10677;SDS011;5387;48.722;9.110;2023-12-20T13:17:36;2.83;;;1.63;;
10677;SDS011;5387;48.722;9.110;2023-12-20T13:20:03;9.33;;;1.73;;
10677;SDS011;5387;48.722;9.110;2023-12-20T13:22:31;4.67;;;1.60;;
10677;SDS011;5387;48.722;9.110;2023-12-20T13:24:58;5.77;;;1.67;;
10677;SDS011;5387;48.722;9.110;2023-12-20T13:27:25;1.67;;;1.43;;
10677;SDS011;5387;48.722;9.110;2023-12-20T13:29:51;1.90;;;1.20;;
10677;SDS011;5387;48.722;9.110;2023-12-20T13:32:19;10.63;;;1.50;;
10677;SDS011;5387;48.722;9.110;2023-12-20T13:34:46;3.00;;;1.17;;
10677;SDS011;5387;48.722;9.110;2023-12-20T13:37:13;4.60;;;1.40;;
10677;SDS011;5387;48.722;9.110;2023-12-20T13:39:40;4.87;;;1.40;;
10677;SDS011;5387;48.722;9.110;2023-12-20T13:42:07;4.43;;;1.50;;
10677;SDS011;5387;48.722;9.110;2023-12-20T13:44:34;3.63;;;1.57;;
10677;SDS011;5387;48.722;9.110;2023-12-20T13:47:00;4.93;;;1.50;;
10677;SDS011;5387;48.722;9.110;2023-12-20T13:49:29;7.53;;;1.73;;
10677;SDS011;5387;48.722;9.110;2023-12-20T13:51:56;2.03;;;1.33;;
10677;SDS011;5387;48.722;9.110;2023-12-20T13:54:23;5.03;;;1.43;;
10677;SDS011;5387;48.722;9.110;2023-12-20T13:56:50;4.27;;;1.17;;
10677;SDS011;5387;48.722;9.110;2023-12-20T13:59:17;1.53;;;1.10;;
10677;SDS011;5387;48.722;9.110;2023-12-20T14:01:44;3.60;;;1.23;;
10677;SDS011;5387;48.722;9.110;2023-12-20T14:04:10;3.70;;;1.30;;
10677;SDS011;5387;48.722;9.110;2023-12-20T14:06:39;2.23;;;1.13;;
10677;SDS011;5387;48.722;9.110;2023-12-20T14:09:06;8.13;;;1.90;;
10677;SDS011;5387;48.722;9.110;2023-12-20T14:11:33;2.20;;;1.43;;
10677;SDS011;5387;48.722;9.110;2023-12-20T14:14:06;2.87;;;1.23;;
10677;SDS011;5387;48.722;9.110;2023-12-20T14:16:33;2.67;;;1.37;;
10677;SDS011;5387;48.722;9.110;2023-12-20T14:19:00;6.10;;;1.67;;
10677;SDS011;5387;48.722;9.110;2023-12-20T14:21:28;7.50;;;1.60;;
10677;SDS011;5387;48.722;9.110;2023-12-20T14:23:56;2.50;;;1.20;;
10677;SDS011;5387;48.722;9.110;2023-12-20T14:26:23;2.43;;;1.60;;
10677;SDS011;5387;48.722;9.110;2023-12-20T14:28:50;4.70;;;1.70;;
10677;SDS011;5387;48.722;9.110;2023-12-20T14:31:18;5.00;;;1.60;;
10677;SDS011;5387;48.722;9.110;2023-12-20T14:33:45;5.23;;;2.23;;
10677;SDS011;5387;48.722;9.110;2023-12-20T14:36:12;6.33;;;1.30;;
10677;SDS011;5387;48.722;9.110;2023-12-20T14:38:38;3.17;;;1.37;;
10677;SDS011;5387;48.722;9.110;2023-12-20T14:41:07;4.83;;;1.27;;
10677;SDS011;5387;48.722;9.110;2023-12-20T14:43:34;4.80;;;1.10;;
10677;SDS011;5387;48.722;9.110;2023-12-20T14:46:01;4.83;;;1.50;;
10677;SDS011;5387;48.722;9.110;2023-12-20T14:48:28;3.40;;;1.60;;
10677;SDS011;5387;48.722;9.110;2023-12-20T14:50:55;4.93;;;1.43;;
10677;SDS011;5387;48.722;9.110;2023-12-20T14:53:22;4.83;;;1.60;;
10677;SDS011;5387;48.722;9.110;2023-12-20T14:55:50;5.07;;;1.20;;
10677;SDS011;5387;48.722;9.110;2023-12-20T14:58:18;4.70;;;1.20;;
10677;SDS011;5387;48.722;9.110;2023-12-20T15:00:45;5.83;;;1.50;;